KZ19 weather

Davison Army Airfield Heliport
Fort Belvoir, Virginia, United States

Public forecast

Using degrees Fahrenheit for public forecast. Weather courtesy of forecast.io.

Closest aviation weather report (METAR) to Davison Army Airfield Heliport

Closest report is Davison Army Air Field, 0.1 nm (0.3 km) S. Retrieved 2020/06/04 04:56 UTC (51 minutes ago):

KDAA 040456Z AUTO 00000KT 10SM CLR 21/19 A2980 RMK AO2 SLP093 T02080191 403430150 TSNO

Closest aviation forecast (TAF) to Davison Army Airfield Heliport

Closest forecast is Davison Army Air Field, 0.1 nm (0.3 km) S. Retrieved 2020-06-04 01:11 UTC (5 hours ago):

TAF KDAA 040100Z 0401/0507 VRB06KT 9999 FEW170 QNH2972INS BECMG 0416/0417 18010G15KT 9000 -SHRA SCT045 QNH2981INS TEMPO 0417/0423 19025G35KT 8000 -TSRA BKN045CB OVC080 BECMG 0423/0424 21006KT 9999 NSW SCT045 510023 QNH2984INS TX33/0420Z TN21/0410Z LAST NO AMDS AFT 0401 NEXT 0409